嘉手納基地の過去48時間の天気

嘉手納基地 (Kadena ab)

現在時刻: 9/16 12:06 JST (9/16 03:06 UTC) 以下の時間は現地時間です。

過去48時間のMETAR気象情報
時間 風向 風速(m/s) 視程 気温(℃) 湿度(%) 気圧(hPa) 天気現象
16 11:16 6 10km以上 31 66 1004.2
16 10:56 5 10km以上 30.6 65 1004.2
16 09:56 北北東 5 10km以上 30.5 67 1004.5
16 08:56 8 10km以上 30 70 1004
16 07:56 7 10km以上 27.8 79 1003.9
16 06:56 4 10km以上 26.5 85 1003.5
16 06:36 3 10km以上 26 89 1003.5
16 06:26 北北東 3 10km以上 26 89 1003.5
16 05:56 北北東 3 10km以上 26 85 1003.5
16 04:56 4 10km以上 26.4 85 1003.2
16 03:56 4 10km以上 26.3 84 1003.2
16 02:56 6 10km以上 26.6 86 1003.2
16 01:56 5 10km以上 26.7 85 1003.5
16 00:56 6 10km以上 26.9 87 1003.9
15 23:56 5 10km以上 27 86 1003.9
15 22:56 4 10km以上 27 88 1004.2
15 22:45 4 10km以上 27 89 1004.2
15 22:35 4 10km以上 27 89 1004.2
15 22:25 4 10km以上 27 89 1004.2
15 22:14 北北東 5 10km以上 27 89 1004.2 弱い霧雨
15 21:56 3 10km以上 27.1 90 1004.2
15 20:56 4 10km以上 26.7 94 1003.9
15 19:56 4 10km以上 26 95 1003.2
15 19:50 5 10km以上 26 94 1003.2
15 19:30 4 10km以上 26 94 1003.5 弱い霧雨
15 19:26 北北東 4 10km以上 26 94 1003.5 弱い霧雨
15 19:16 北北東 3 10km以上 26 94 1003.5 弱い雨 もや
15 19:06 北北東 5 2200m 26 94 1003.9 強い雨 もや
15 18:56 北北東 3 6450m 25.9 95 1003.5 強い雨 もや
15 18:33 静穏 0 6450m 26 94 1003.2 強い雨 もや
15 18:21 北北東 2 8050m 26 94 1003.2 強い雨 もや
15 18:11 北北東 3 6450m 26 94 1003.2 強い雨 もや
15 17:58 北北東 4 4450m 26 89 1003.2 強い雨 もや
15 17:42 北東 6 3050m 25 94 1003.2 強い雨 もや
15 17:32 北東 5 4850m 25 94 1003.2 強い雨 もや
15 17:17 北北東 7 3200m 26 94 1002.9 強い雷雨 もや
15 17:07 北北東 8 3200m 27 94 1002.8 強い雨 もや
15 16:56 6 3200m 26.8 94 1002.5 強い雨
15 16:43 5 4850m 27 94 1002.5 弱い雨
15 16:34 4 4850m 27 94 1002.5 もや
15 16:26 4 4850m 27 89 1002.2 弱い雨
15 16:16 4 3200m 27 89 1002.5 強い雨 もや
15 16:06 北北東 4 2200m 27 89 1002.5 強い雨 もや
15 15:56 北北西 5 3200m 26.5 92 1002.5 雨 もや
15 15:39 北北西 7 2600m 27 89 1002.5 強い雨 もや
15 15:36 6 800m 27 89 1002.5 強い雨 もや
15 15:27 4 800m 27 89 1002.5 強い雨
15 15:14 5 2000m 28 84 1002.5 強い雨 もや
15 15:04 5 10km以上 28 89 1002.5 弱い雨
15 14:56 北北西 4 10km以上 27.9 89 1002.5
15 14:43 5 10km以上 28 89 1002.5 弱い霧雨
15 13:57 5 10km以上 27 94 1002.5
15 12:56 4 10km以上 26.9 95 1003.2 弱い霧雨
15 12:27 6 10km以上 26 100 1003.5 弱い雨
15 12:17 4 10km以上 26 94 1003.5 強い雨 もや
15 12:07 北北東 5 2400m 27 94 1003.9 強い雨 もや
15 11:56 6 10km以上 27.1 95 1003.9
15 10:56 3 10km以上 26 95 1004.5 弱い霧雨
15 09:56 4 8050m 25.5 95 1004.9 雨 もや
15 09:28 北北東 7 3200m 26 94 1005.2 強い雨 もや
15 09:08 北北東 5 6450m 26 94 1004.9 強い雨 もや
15 08:56 北北東 4 4850m 26 94 1004.9 強い雨 もや
15 08:36 北北東 3 6450m 26 94 1004.5 強い雨 もや
15 08:26 北北東 2 4450m 26 94 1004.5 強い雨 もや
15 08:06 北北東 3 6450m 26 94 1004.5 強い雨 もや
15 07:56 3 8050m 26.1 92 1004.2 強い雨 もや
15 07:36 3 8050m 26 94 1003.9 弱い雨 もや
15 07:26 2 8050m 26 94 1003.9 強い雨
15 07:24 北北東 2 10km以上 26 94 1003.9 もや
15 06:56 北北東 5 10km以上 26.5 92 1003.8 弱い雨
15 06:49 北北東 3 10km以上 26 94 1003.9 弱い霧雨
15 06:25 2 10km以上 26 94 1003.5 弱い霧雨
15 05:56 静穏 0 10km以上 26.1 92 1003.5
15 04:56 2 10km以上 26.3 93 1003.5
15 04:27 北北東 2 10km以上 26 94 1003.5 弱い霧雨
15 03:56 2 10km以上 26.3 92 1003.5
15 02:56 5 10km以上 26.3 91 1003.8
15 01:56 4 10km以上 26.9 92 1004.1
15 01:36 3 10km以上 27 89 1004.1
15 01:18 6 10km以上 28 89 1004.5 弱い霧雨
15 00:56 3 10km以上 27.5 89 1004.5
15 00:06 3 10km以上 28 89 1004.5
14 23:56 4 10km以上 27.7 88 1004.8
14 23:36 3 10km以上 28 84 1004.8
14 22:56 4 10km以上 27.7 87 1004.8
14 21:56 5 10km以上 27.8 87 1004.8
14 20:56 3 10km以上 28 86 1004.8
14 19:56 3 10km以上 28.1 87 1004.8
14 18:56 5 10km以上 28.4 85 1004.2
14 18:36 6 10km以上 29 84 1004.2
14 18:06 6 10km以上 30 75 1003.8
14 17:56 7 10km以上 29.8 77 1003.8
14 16:56 7 10km以上 30.5 74 1003.8
14 15:56 8 10km以上 31.8 68 1003.5
14 14:56 9 10km以上 32.2 68 1003.5
14 13:56 9 10km以上 32.4 70 1004.2
14 12:56 8 10km以上 32.1 70 1004.2
RODN 160216Z AUTO 01011KT 10SM BKN029 31/24 A2964 RMK AO2 BKN V OVC SLP042 $
RODN 160156Z AUTO 01010G18KT 10SM BKN031 31/23 A2964 RMK AO2 SLP042 T03060232 $
RODN 160056Z AUTO 02010G20KT 10SM SCT030 31/24 A2965 RMK AO2 SLP045 T03050236 $
RODN 152356Z 01016G22KT 10SM SCT025 30/24 A2965 RMK 52010 SLPNO
RODN 152256Z AUTO 01013G18KT 10SM FEW022 SCT031 28/24 A2963 RMK AO2 SLP039 T02780238 $
RODN 152156Z AUTO 01008KT 10SM FEW021 FEW030 27/24 A2962 RMK AO2 SLP035 T02650237 $
RODN 152136Z AUTO 01006KT 10SM SCT021 BKN030 26/24 A2962 RMK AO2 SLP035 $
RODN 152126Z AUTO 02005KT 10SM BKN019 BKN028 BKN035 26/24 A2962 RMK AO2 SLP035 $
RODN 152056Z AUTO 02006KT 10SM CLR 26/23 A2962 RMK AO2 SLP035 T02600232 53001 $
RODN 151956Z AUTO 36007KT 10SM CLR 26/24 A2961 RMK AO2 SLP032 T02640236 $
RODN 151856Z AUTO 01007KT 10SM CLR 26/23 A2961 RMK AO2 SLP032 T02630233 $
RODN 151756Z AUTO 36012KT 10SM FEW022 27/24 A2961 RMK AO2 SLP032 60000 T02660240 10271 20266 57008 $
RODN 151656Z AUTO 01010KT 10SM CLR 27/24 A2962 RMK AO2 SLP035 T02670239 $
RODN 151556Z AUTO 01012G14KT 10SM FEW019 27/25 A2963 RMK AO2 SLP039 T02690245 $
RODN 151456Z AUTO 35010KT 10SM BKN042 27/24 A2963 RMK AO2 SLP039 60000 T02700244 402790253 50001 $
RODN 151356Z AUTO 36008KT 10SM FEW019 FEW029 SCT041 27/25 A2964 RMK AO2 DZB14E24 SLP042 P0000 T02700248 $
RODN 151345Z AUTO 01008KT 10SM FEW017 SCT027 27/25 A2964 RMK AO2 DZB14E24 SLP042 $
RODN 151335Z AUTO 01008KT 10SM SCT019 BKN027 27/25 A2964 RMK AO2 DZB14E24 CIG 018V027 SLP042 $
RODN 151325Z AUTO 36007KT 10SM SCT018 OVC025 27/25 A2964 RMK AO2 DZB14E24 OVC V BKN CIG 022 RWY05 SLP042 $
RODN 151314Z AUTO 02009KT 10SM -DZ FEW018 BKN024 OVC034 27/25 A2964 RMK AO2 DZB14 CIG 022V029 SLP042 $
RODN 151256Z AUTO 36006KT 10SM SCT022 BKN034 OVC046 27/25 A2964 RMK AO2 SLP042 T02710253 $
RODN 151156Z AUTO 36007KT 10SM FEW030 SCT038 27/26 A2963 RMK AO2 SLP039 60152 T02670256 10278 20253 50007 $
RODN 151056Z AUTO 01007KT 10SM FEW039 26/25 A2961 RMK AO2 PK WND 06028/01 RAE24DZB24E29DZB30E50 SLP032 P0027 T02600251 $
RODN 151050Z AUTO 01009KT 10SM SCT040 26/25 A2961 RMK AO2 RAE24DZB24E29DZB30E50 SLP032 $
RODN 151030Z AUTO 01007KT 10SM -DZ BKN034 BKN041 BKN110 26/25 A2962 RMK AO2 RAE24DZB24E29DZB30 SLP035 $
RODN 151026Z AUTO 02008KT 10SM -DZ SCT028 SCT039 BKN110 26/25 A2962 RMK AO2 RAE24DZB24 SLP035 $
RODN 151016Z AUTO 02006KT 9SM -RA BR FEW010 BKN026 BKN036 OVC110 26/25 A2962 RMK AO2 BKN026 V OVC CIG 021 RWY05 SLP035 $
RODN 151006Z AUTO 03010G19KT 1 3/8SM +RA BR FEW010 OVC019 26/25 A2963 RMK AO2 VIS 1 3/8V3 CIG 019V024 SLP039 $
RODN 150956Z AUTO 03006KT 4SM +RA BR SCT012 OVC024 26/25 A2962 RMK AO2 CIG 021V027 OVC V BKN CIG 021 RWY05 SLP035 P0020 T02590250 $
RODN 150933Z AUTO 00000KT 4SM +RA BR FEW022 SCT031 26/25 A2961 RMK AO2 SLP032 $
RODN 150921Z 02004KT 5SM +RA BR BKN013 OVC030 26/25 A2961 RMK AO2A SLP032 $
RODN 150911Z 02005KT 4SM +RA BR BKN013 26/25 A2961 RMK AO2A SLP032 $
RODN 150858Z 02007KT 2 3/4SM +RA BR BKN012 26/24 A2961 RMK AO2A VIS 2V2 3/4 SLP032 $
RODN 150842Z 04011KT 1 7/8SM +RA BR BKN013 25/24 A2961 RMK AO2A VIS 1 7/8V3 LTG DSNT S TSB17E32 SLP032 $
RODN 150832Z 04010KT 3SM +RA BR BKN020 25/24 A2961 RMK AO2A TSB17E32 SLP032 $
RODN 150817Z 02013G20KT 2SM +TSRA BR FEW011 SCT018 SCT024 OVC031 26/25 A2960 RMK AO2A VIS 1 7/8V4 LTG DSNT NW SLP029 $
RODN 150807Z 02015G22KT 2SM +RA BR BKN018 OVC026 27/26 A2960 RMK AO2A CIG 018V028 OVC V BKN CIG 022 RWY05 SLP028 $
RODN 150756Z 36011G16KT 2SM +RA FEW009 BKN019 BKN023 OVC033 27/26 A2959 RMK AO2A RAE31DZB31E34RAB43 SLP025 P0025 T02680257 $
RODN 150743Z 35009KT 3SM -RA SCT010 BKN017 OVC028 27/26 A2959 RMK AO2A RAE31DZB31E34RAB43 CIG 008V017 CIG 013 RWY05 SLP025 $
RODN 150734Z 01008KT 3SM BR BKN008 BKN013 OVC019 27/26 A2959 RMK AO2A RAE31DZB31E34 CIG 008V012 BKN008 V SCT SLP025 $
RODN 150726Z 36007KT 3SM -RA SCT008 BKN012 OVC017 27/25 A2958 RMK AO2A CIG 007V012 SLP022 $
RODN 150716Z 35007KT 2SM +RA BR SCT007 BKN012 OVC017 27/25 A2959 RMK AO2A VIS 1 7/8 RWY05 CIG 012V025 SLP025 $
RODN 150706Z 02008KT 1 3/8SM +RA BR SCT007 OVC020 27/25 A2959 RMK AO2A VIS 1 3/8V3 CIG 019 RWY05 SLP025 $
RODN 150656Z 34009KT 2SM RA BR SCT007 BKN012 OVC027 27/25 A2959 RMK AO2A RAB04 CIG 020 RWY05 SLP025 P0049 T02650251 $
RODN 150639Z 34013KT 1 5/8SM +RA BR BKN007 OVC013 27/25 A2959 RMK AO2A VIS 1 5/8V3 RAB04 CIG 015 RWY05 SLP025 $
RODN 150636Z 35012G15KT 1/2SM +RA BR SCT007 BKN013 OVC023 27/25 A2959 RMK AO2A RAB04 CIG 017 RWY05 SLP025 $
RODN 150627Z 36007KT 1/2SM +RA SCT012 OVC021 27/25 A2959 RMK RAB04 OVC V BKN CIG 019 RWY05 SLP025 $
RODN 150614Z 35010G17KT 1 1/4SM +RA BR BKN021 OVC028 28/25 A2959 RMK AO2A VIS 1 1/8V6 RAB04 CIG 021V027 CIG 017 RWY05 SLP025 $
RODN 150604Z 35010KT 7SM -RA BKN026 OVC038 28/26 A2959 RMK AO2A RAB04 SLP025 $
RODN 150556Z 34007KT 10SM BKN026 OVC038 28/26 A2959 RMK AO2A DZE0456DZB43E49 CIG 026V038 SLP025 P0000 60061 T02790259 10279 20254 56012 $
RODN 150543Z 35010KT 10SM -DZ FEW021 SCT026 BKN038 BKN044 OVC055 28/26 A2959 RMK AO2A DZE0456DZB43 SLP025 $
RODN 150457Z 35009G16KT 10SM FEW022 SCT037 SCT140 BKN180 27/26 A2959 RMK AO2A DZE56 SLP025 $
RODN 150356Z 35007KT 10SM -DZ FEW014 FEW036 SCT090 BKN170 27/26 A2961 RMK AO2A DZB0257E0258RAB0258E28DZB28E33RAB33E43DZB43 SLP032 P0018 T02690260 $
RODN 150327Z 01011KT 10SM -RA FEW012 BKN031 26/26 A2962 RMK AO2A DZB0257E0258RAB0258 SLP035 $
RODN 150317Z 01008KT 7SM +RA BR FEW015 FEW025 OVC029 26/25 A2962 RMK AO2A DZB0257E0258RAB0258 CIG 025 RWY05 SLP035 $
RODN 150307Z 02009G22KT 1 1/2SM +RA BR FEW015 OVC031 27/26 A2963 RMK AO2A VIS 1 1/2V9 DZB0257E0258RAB0258 SLP039 $
RODN 150256Z 01012KT 10SM SCT015 SCT022 BKN029 BKN036 27/26 A2963 RMK AO2A DZE26RAB26E49DZB49E54 CIG 029V035 BKN029 V SCT SLP039 P0001 60042 T02710262 58011 $
RODN 150156Z AUTO 01006KT 10SM -DZ FEW017 FEW040 SCT055 26/25 A2965 RMK AO2 RAE52DZB52 SLP045 P0004 T02600251 $
RODN 150056Z 35007KT 5SM RA BR FEW043 SCT020 OVC050 26/25 A2966 RMK AO2A SLP049 P0037 T02550246 $
RODN 150028Z 03013G24KT 2SM +RA BR OVC044 26/25 A2967 RMK AO2A SLP052 $
RODN 150008Z 02009KT 4SM +RA BR OVC046 26/25 A2966 RMK AO2A VIS 2 1/4 RWY05 SLP049 $
RODN 142356Z 03008KT 3SM +RA BR SCT015 BKN020 OVC050 26/25 A2966 RMK AO2A SLP049 P0023 60032 70043 T02600249 10265 20260 52013 $
RODN 142336Z COR AUTO 02006KT 4SM +RA BR SCT018 BKN020 26/25 A2965 RMK AO2A SLP045 $ COR 2339
RODN 142326Z AUTO 03004KT 2 3/4SM +RA BR FEW020 26/25 A2965 RMK AO2 VIS 2 3/4V4 SLP045 $
RODN 142306Z AUTO 03006KT 4SM +RA BR FEW009 SCT021 OVC060 26/25 A2965 RMK AO2 SLP045 $
RODN 142256Z AUTO 36005KT 5SM +RA BR FEW009 SCT021 SCT032 OVC050 26/25 A2964 RMK AO2 RAE24RAB26 SLP042 P0008 T02610247 $
RODN 142236Z AUTO 35005KT 5SM -RA BR FEW030 FEW045 OVC060 26/25 A2963 RMK AO2 RAE24RAB26 SLP039 $
RODN 142226Z AUTO 01004KT 5SM +RA OVC070 26/25 A2963 RMK AO2 RAE24RAB26 SLP039 $
RODN 142224Z AUTO 02004KT 6SM BR FEW044 OVC070 26/25 A2963 RMK AO2 RAE24 SLP039 $
RODN 142156Z AUTO 02009KT 9SM -RA FEW022 27/25 A2963 RMK AO2 DZB25E45DZB49E51RAB51 SLP038 P0000 T02650251 $
RODN 142149Z AUTO 02006KT 10SM -DZ FEW060 26/25 A2963 RMK AO2 DZB25E45DZB49 SLP039 $
RODN 142125Z AUTO 36004KT 10SM -DZ FEW034 BKN060 OVC110 26/25 A2962 RMK AO2 DZB25 SLP035 $
RODN 142056Z AUTO 00000KT 10SM FEW110 SCT200 26/25 A2962 RMK AO2 SLP035 60001 T02610247 55003 $
RODN 141956Z AUTO 36004KT 10SM CLR 26/25 A2962 RMK AO2 DZB27E54 SLP035 P0001 T02630250 $
RODN 141927Z AUTO 02003KT 10SM -DZ FEW120 BKN160 26/25 A2962 RMK AO2 DZB27 SLP035 $
RODN 141856Z AUTO 01003KT 10SM SCT014 BKN170 BKN190 26/25 A2962 RMK AO2 SLP035 T02630249 $
RODN 141756Z AUTO 01009KT 10SM FEW070 26/25 A2963 RMK AO2 SLP038 60011 T02630247 10280 20263 57007 $
RODN 141656Z AUTO 01007KT 10SM FEW014 FEW030 SCT040 SCT050 27/25 A2964 RMK AO2 DZB18E19RAB19E36 SLP041 P0011 T02690254 $
RODN 141636Z AUTO 35006KT 10SM SCT027 BKN034 27/25 A2964 RMK AO2 DZB18E19RAB19E36 SLP041 $
RODN 141618Z AUTO 01012G19KT 7SM -DZ SCT018 BKN025 BKN032 OVC046 28/26 A2965 RMK AO2 DZB18 CIG 025V032 SLP045 $
RODN 141556Z AUTO 36005KT 10SM SCT043 28/26 A2965 RMK AO2 SLP045 T02750255 $
RODN 141506Z AUTO 36006KT 10SM SCT019 28/26 A2965 RMK AO2 SLP045 $
RODN 141456Z AUTO 36008KT 10SM SCT015 BKN020 28/26 A2966 RMK AO2 SLP048 T02770255 403250258 58003 $
RODN 141436Z AUTO 01006KT 10SM SCT014 BKN023 BKN031 28/25 A2966 RMK AO2 CIG 023V033 SLP048 $
RODN 141356Z AUTO 36007KT 10SM CLR 28/25 A2966 RMK AO2 SLP048 T02770253 $
RODN 141256Z AUTO 35009KT 10SM CLR 28/25 A2966 RMK AO2 SLP048 T02780254 $
RODN 141156Z AUTO 36006KT 10SM CLR 28/25 A2966 RMK AO2 SLP048 T02800254 10322 20279 52010 $
RODN 141056Z AUTO 01006KT 10SM FEW020 28/26 A2966 RMK AO2 SLP048 T02810257 $
RODN 140956Z AUTO 35010KT 10SM CLR 28/26 A2964 RMK AO2 SLP042 T02840256 $
RODN 140936Z AUTO 36012KT 10SM FEW017 29/26 A2964 RMK AO2 SLP042 $
RODN 140906Z AUTO 36012G18KT 10SM BKN021 30/25 A2963 RMK AO2 SLP038 $
RODN 140856Z AUTO 35014G17KT 10SM SCT020 30/25 A2963 RMK AO2 SLP038 T02980253 53005 $
RODN 140756Z AUTO 35014G19KT 10SM SCT016 31/25 A2963 RMK AO2 SLP038 T03050253 $
RODN 140656Z AUTO 35016G22KT 10SM CLR 32/25 A2962 RMK AO2 SLP035 T03180251 $
RODN 140556Z AUTO 36017G24KT 10SM FEW018 32/26 A2962 RMK AO2 SLP035 T03220255 10325 20301 57012 $
RODN 140456Z AUTO 35018G22KT 10SM FEW018 32/26 A2964 RMK AO2 SLP042 T03240262 $
RODN 140356Z AUTO 36016G19KT 10SM FEW019 SCT040 32/26 A2964 RMK AO2 SLP042 T03210259 $